createdAt,value
2022-07-25T00:00:27.946Z,100877.22
2022-07-25T00:02:55.895Z,100878.41
2022-07-25T00:05:25.736Z,100866.03
2022-07-25T00:07:53.679Z,100865.25
2022-07-25T00:10:21.897Z,100859.09
2022-07-25T00:12:50.069Z,100860.09
2022-07-25T00:15:18.219Z,100861.13
2022-07-25T00:17:46.396Z,100860.22
2022-07-25T00:20:14.634Z,100857.69
2022-07-25T00:22:44.066Z,100857.81
2022-07-25T00:25:12.391Z,100847.94
2022-07-25T00:27:40.422Z,100840.06
2022-07-25T00:30:09.555Z,100849.22
2022-07-25T00:32:37.661Z,100846.88
2022-07-25T00:35:06.521Z,100847.19
2022-07-25T00:37:34.529Z,100848.22
2022-07-25T00:40:04.012Z,100845.59
2022-07-25T00:42:32.082Z,100842.13
2022-07-25T00:45:00.344Z,100849.50
2022-07-25T00:47:28.307Z,100841.50
2022-07-25T00:49:56.330Z,100848.03
2022-07-25T00:52:24.766Z,100846.19
2022-07-25T00:54:52.876Z,100847.16
2022-07-25T00:57:22.180Z,100850.94
2022-07-25T00:59:50.240Z,100842.94
2022-07-25T01:02:18.384Z,100842.09
2022-07-25T01:04:46.355Z,100837.69
2022-07-25T01:07:15.044Z,100842.16
2022-07-25T01:09:43.465Z,100845.88
2022-07-25T01:12:11.507Z,100837.78
2022-07-25T01:14:40.970Z,100830.38
2022-07-25T01:17:08.887Z,100832.16
2022-07-25T01:19:36.848Z,100830.91
2022-07-25T01:22:06.709Z,100824.28
2022-07-25T01:24:35.759Z,100836.72
2022-07-25T01:27:03.943Z,100831.97
2022-07-25T01:29:31.947Z,100826.22
2022-07-25T01:32:00.016Z,100825.06
2022-07-25T01:34:28.044Z,100828.59
2022-07-25T01:36:55.966Z,100830.22
2022-07-25T01:39:25.359Z,100830.22
2022-07-25T01:41:53.329Z,100828.28
2022-07-25T01:44:21.298Z,100828.28
2022-07-25T01:46:49.487Z,100822.84
2022-07-25T01:49:17.651Z,100828.41
2022-07-25T01:51:45.707Z,100819.22
2022-07-25T01:54:14.595Z,100816.59
2022-07-25T01:56:46.950Z,100813.00
2022-07-25T01:59:16.999Z,100811.22
2022-07-25T02:01:45.279Z,100805.97
2022-07-25T02:04:13.361Z,100811.44
2022-07-25T02:06:41.988Z,100800.91
2022-07-25T02:09:10.194Z,100803.66
2022-07-25T02:11:38.183Z,100797.41
2022-07-25T02:14:08.101Z,100802.19
2022-07-25T02:16:36.401Z,100801.28
2022-07-25T02:19:04.793Z,100791.38
2022-07-25T02:21:32.951Z,100799.56
2022-07-25T02:24:00.963Z,100792.25
2022-07-25T02:26:28.894Z,100786.88
2022-07-25T02:28:56.870Z,100786.03
2022-07-25T02:31:26.443Z,100781.63
2022-07-25T02:33:54.464Z,100776.19
2022-07-25T02:36:22.687Z,100776.28
2022-07-25T02:38:50.721Z,100761.75
2022-07-25T02:41:18.803Z,100763.63
2022-07-25T02:43:46.852Z,100767.31
2022-07-25T02:46:15.035Z,100766.63
2022-07-25T02:48:44.694Z,100760.38
2022-07-25T02:51:13.038Z,100766.94
2022-07-25T02:53:56.611Z,100759.81
2022-07-25T02:56:26.288Z,100751.13
2022-07-25T02:58:58.008Z,100759.59
2022-07-25T03:01:26.074Z,100752.69
2022-07-25T03:03:55.576Z,100742.84
2022-07-25T03:06:23.574Z,100743.91
2022-07-25T03:08:51.499Z,100750.56
2022-07-25T03:11:19.725Z,100740.88
2022-07-25T03:13:47.706Z,100739.19
2022-07-25T03:16:15.824Z,100729.56
2022-07-25T03:18:43.815Z,100727.69
2022-07-25T03:21:13.181Z,100733.94
2022-07-25T03:23:41.119Z,100723.03
2022-07-25T03:28:36.901Z,100725.66
2022-07-25T03:31:04.852Z,100718.47
2022-07-25T03:33:32.964Z,100712.16
2022-07-25T03:36:00.799Z,100716.69
2022-07-25T03:38:30.436Z,100713.88
2022-07-25T03:40:58.256Z,100708.53
2022-07-25T03:43:26.109Z,100709.53
2022-07-25T03:48:21.721Z,100695.00
2022-07-25T03:50:49.561Z,100695.81
2022-07-25T03:53:17.437Z,100694.63
2022-07-25T03:55:46.704Z,100694.56
2022-07-25T03:58:14.562Z,100688.91
2022-07-25T04:00:42.526Z,100691.34
2022-07-25T04:03:10.451Z,100691.25
2022-07-25T04:05:38.300Z,100686.59
2022-07-25T04:08:06.362Z,100690.97
2022-07-25T04:10:34.464Z,100686.34
2022-07-25T04:13:03.885Z,100686.03
2022-07-25T04:15:31.838Z,100682.16
2022-07-25T04:18:01.140Z,100692.56
2022-07-25T04:20:30.039Z,100683.22
2022-07-25T04:22:57.972Z,100677.47
2022-07-25T04:25:25.763Z,100678.16
2022-07-25T04:27:53.678Z,100681.44
2022-07-25T04:30:24.194Z,100670.25
2022-07-25T04:32:52.688Z,100670.94
2022-07-25T04:35:20.599Z,100663.63
2022-07-25T04:37:48.447Z,100664.50
2022-07-25T04:40:16.597Z,100662.66
2022-07-25T04:42:44.506Z,100657.09
2022-07-25T04:45:12.858Z,100652.63
2022-07-25T04:47:44.994Z,100660.72
2022-07-25T04:50:12.928Z,100656.88
2022-07-25T04:52:40.898Z,100654.94
2022-07-25T04:55:09.593Z,100645.38
2022-07-25T04:57:38.268Z,100651.44
2022-07-25T05:00:08.841Z,100647.34
2022-07-25T05:02:37.316Z,100644.53
2022-07-25T05:05:08.523Z,100636.03
2022-07-25T05:07:49.081Z,100633.28
2022-07-25T05:10:16.863Z,100626.88
2022-07-25T05:12:44.634Z,100630.03
2022-07-25T05:15:13.387Z,100629.53
2022-07-25T05:17:41.248Z,100628.91
2022-07-25T05:20:12.192Z,100629.25
2022-07-25T05:22:40.017Z,100626.69
2022-07-25T05:25:09.396Z,100627.47
2022-07-25T05:27:37.277Z,100626.75
2022-07-25T05:30:06.977Z,100623.59
2022-07-25T05:32:34.940Z,100622.38
2022-07-25T05:35:02.784Z,100618.00
2022-07-25T05:37:31.990Z,100612.78
2022-07-25T05:39:59.728Z,100625.75
2022-07-25T05:42:27.896Z,100627.72
2022-07-25T05:44:55.670Z,100628.88
2022-07-25T05:47:23.543Z,100622.31
2022-07-25T05:49:51.306Z,100616.41
2022-07-25T05:52:19.140Z,100620.25
2022-07-25T05:54:48.336Z,100614.22
2022-07-25T05:57:16.121Z,100607.09
2022-07-25T05:59:43.939Z,100607.22
2022-07-25T06:02:11.923Z,100602.44
2022-07-25T06:04:39.860Z,100609.22
2022-07-25T06:07:07.653Z,100602.13
2022-07-25T06:09:36.310Z,100595.94
2022-07-25T06:12:06.493Z,100597.94
2022-07-25T06:14:36.176Z,100596.16
2022-07-25T06:17:04.006Z,100592.56
2022-07-25T06:19:31.801Z,100595.53
2022-07-25T06:21:59.596Z,100592.34
2022-07-25T06:24:27.424Z,100601.28
2022-07-25T06:26:55.165Z,100592.00
2022-07-25T06:29:24.312Z,100590.78
2022-07-25T06:31:52.148Z,100595.03
2022-07-25T06:34:20.011Z,100593.94
2022-07-25T06:36:47.855Z,100590.31
2022-07-25T06:39:15.705Z,100599.09
2022-07-25T06:41:43.501Z,100592.19
2022-07-25T06:44:11.247Z,100602.44
2022-07-25T06:46:40.659Z,100598.94
2022-07-25T06:49:08.588Z,100604.13
2022-07-25T06:51:36.412Z,100598.25
2022-07-25T06:54:04.881Z,100614.31
2022-07-25T06:56:33.045Z,100617.84
2022-07-25T06:59:01.607Z,100612.91
2022-07-25T07:01:30.290Z,100610.06
2022-07-25T07:03:59.619Z,100612.59
2022-07-25T07:06:27.417Z,100603.06
2022-07-25T07:08:56.139Z,100604.59
2022-07-25T07:11:24.122Z,100606.59
2022-07-25T07:13:51.946Z,100603.50
2022-07-25T07:16:19.846Z,100604.84
2022-07-25T07:18:49.460Z,100589.53
2022-07-25T07:21:21.441Z,100587.78
2022-07-25T07:23:49.403Z,100585.91
2022-07-25T07:26:21.476Z,100592.00
2022-07-25T07:28:49.280Z,100593.81
2022-07-25T07:31:18.402Z,100588.31
2022-07-25T07:33:46.728Z,100581.56
2022-07-25T07:36:14.875Z,100587.44
2022-07-25T07:38:44.577Z,100573.91
2022-07-25T07:41:12.773Z,100578.91
2022-07-25T07:43:40.597Z,100573.28
2022-07-25T07:46:09.056Z,100584.38
2022-07-25T07:48:37.301Z,100580.03
2022-07-25T07:51:06.001Z,100579.31
2022-07-25T07:53:51.253Z,100584.25
2022-07-25T07:56:20.587Z,100582.50
2022-07-25T07:58:48.567Z,100587.28
2022-07-25T08:01:16.420Z,100594.47
2022-07-25T08:03:44.301Z,100588.00
2022-07-25T08:06:12.346Z,100586.00
2022-07-25T08:08:40.211Z,100590.75
2022-07-25T08:11:08.244Z,100580.13
2022-07-25T08:13:38.169Z,100595.06
2022-07-25T08:16:07.321Z,100589.66
2022-07-25T08:18:35.250Z,100592.06
2022-07-25T08:21:06.084Z,100596.63
2022-07-25T08:23:35.448Z,100602.88
2022-07-25T08:26:04.062Z,100592.75
2022-07-25T08:28:31.907Z,100589.88
2022-07-25T08:31:01.667Z,100575.41
2022-07-25T08:33:29.619Z,100571.91
2022-07-25T08:35:58.738Z,100580.91
2022-07-25T08:38:30.600Z,100579.16
2022-07-25T08:40:59.744Z,100583.38
2022-07-25T08:43:29.282Z,100598.53
2022-07-25T08:45:57.158Z,100601.03
2022-07-25T08:48:27.750Z,100613.91
2022-07-25T08:50:57.493Z,100608.84
2022-07-25T08:53:35.088Z,100605.91
2022-07-25T08:56:11.164Z,100608.28
2022-07-25T08:58:43.971Z,100600.31
2022-07-25T09:01:12.551Z,100604.53
2022-07-25T09:03:43.181Z,100601.00
2022-07-25T09:06:19.953Z,100592.06
2022-07-25T09:08:55.722Z,100596.00
2022-07-25T09:11:32.345Z,100600.56
2022-07-25T09:14:02.086Z,100608.25
2022-07-25T09:16:31.625Z,100598.00
2022-07-25T09:19:12.655Z,100603.72
2022-07-25T09:21:42.192Z,100603.22
2022-07-25T09:24:12.871Z,100590.34
2022-07-25T09:26:49.872Z,100583.72
2022-07-25T09:29:19.598Z,100592.25
2022-07-25T09:31:48.018Z,100593.72
2022-07-25T09:34:31.054Z,100599.66
2022-07-25T09:36:59.396Z,100607.31
2022-07-25T09:39:34.932Z,100617.97
2022-07-25T09:42:03.147Z,100623.69
2022-07-25T09:44:31.312Z,100634.16
2022-07-25T09:46:59.854Z,100632.75
2022-07-25T09:49:40.277Z,100633.63
2022-07-25T09:52:08.473Z,100630.88
2022-07-25T09:54:36.641Z,100635.38
2022-07-25T09:57:04.660Z,100630.13
2022-07-25T09:59:34.387Z,100632.00
2022-07-25T10:02:07.997Z,100627.13
2022-07-25T10:04:45.819Z,100625.28
2022-07-25T10:07:16.716Z,100638.88
2022-07-25T10:09:46.737Z,100642.50
2022-07-25T10:12:19.347Z,100621.44
2022-07-25T10:15:06.906Z,100632.19
2022-07-25T10:17:35.255Z,100631.78
2022-07-25T10:20:06.569Z,100630.78
2022-07-25T10:22:55.811Z,100632.97
2022-07-25T10:25:24.763Z,100622.84
2022-07-25T10:28:00.048Z,100621.38
2022-07-25T10:30:30.167Z,100652.13
2022-07-25T10:33:00.618Z,100636.50
2022-07-25T10:35:30.257Z,100638.00
2022-07-25T10:37:59.759Z,100635.81
2022-07-25T10:40:34.770Z,100644.56
2022-07-25T10:43:13.352Z,100637.63
2022-07-25T10:45:50.391Z,100645.47
2022-07-25T10:48:23.442Z,100642.41
2022-07-25T10:50:58.094Z,100643.88
2022-07-25T10:53:31.820Z,100652.28
2022-07-25T10:56:06.188Z,100642.59
2022-07-25T10:58:48.861Z,100643.44
2022-07-25T11:01:21.626Z,100633.03
2022-07-25T11:03:50.387Z,100629.09
2022-07-25T11:06:32.222Z,100628.34
2022-07-25T11:09:01.219Z,100631.97
2022-07-25T11:11:40.453Z,100637.63
2022-07-25T11:14:16.608Z,100643.16
2022-07-25T11:16:44.910Z,100641.13
2022-07-25T11:19:24.380Z,100634.59
2022-07-25T11:21:55.778Z,100644.75
2022-07-25T11:24:34.750Z,100640.72
2022-07-25T11:27:02.577Z,100644.78
2022-07-25T11:29:30.481Z,100652.75
2022-07-25T11:32:00.544Z,100643.63
2022-07-25T11:34:30.241Z,100655.78
2022-07-25T11:37:02.621Z,100653.59
2022-07-25T11:39:33.559Z,100657.81
2022-07-25T11:42:03.603Z,100652.59
2022-07-25T11:44:33.499Z,100664.22
2022-07-25T11:47:01.691Z,100663.19
2022-07-25T11:49:29.589Z,100663.19
2022-07-25T11:51:57.478Z,100667.41
2022-07-25T11:54:26.596Z,100662.06
2022-07-25T11:56:54.387Z,100668.00
2022-07-25T11:59:22.339Z,100659.88
2022-07-25T12:01:50.178Z,100669.03
2022-07-25T12:04:20.279Z,100677.13
2022-07-25T12:06:49.714Z,100668.44
2022-07-25T12:09:19.603Z,100672.31
2022-07-25T12:11:50.768Z,100679.41
2022-07-25T12:14:18.651Z,100673.44
2022-07-25T12:16:46.605Z,100675.91
2022-07-25T12:19:22.650Z,100682.88
2022-07-25T12:21:50.441Z,100687.97
2022-07-25T12:24:18.286Z,100678.41
2022-07-25T12:26:46.076Z,100685.22
2022-07-25T12:29:15.235Z,100676.63
2022-07-25T12:31:42.989Z,100688.78
2022-07-25T12:34:10.757Z,100683.88
2022-07-25T12:36:43.943Z,100690.25
2022-07-25T12:39:12.357Z,100677.50
2022-07-25T12:41:42.429Z,100690.28
2022-07-25T12:44:10.162Z,100698.97
2022-07-25T12:46:44.591Z,100684.81
2022-07-25T12:49:16.898Z,100694.53
2022-07-25T12:51:44.865Z,100683.25
2022-07-25T12:54:12.633Z,100694.94
2022-07-25T12:56:40.405Z,100690.88
2022-07-25T12:59:08.553Z,100687.81
2022-07-25T13:01:36.744Z,100689.56
2022-07-25T13:04:07.304Z,100692.28
2022-07-25T13:06:38.594Z,100692.88
2022-07-25T13:09:07.759Z,100703.91
2022-07-25T13:11:36.001Z,100699.56
2022-07-25T13:14:03.858Z,100686.84
2022-07-25T13:16:31.702Z,100683.81
2022-07-25T13:18:59.551Z,100688.16
2022-07-25T13:21:29.520Z,100683.66
2022-07-25T13:23:57.274Z,100691.94
2022-07-25T13:26:25.169Z,100693.53
2022-07-25T13:28:57.911Z,100694.97
2022-07-25T13:31:27.553Z,100688.69
2022-07-25T13:33:55.506Z,100692.31
2022-07-25T13:36:23.262Z,100693.47
2022-07-25T13:38:52.343Z,100697.38
2022-07-25T13:41:20.119Z,100684.22
2022-07-25T13:43:48.888Z,100686.31
2022-07-25T13:46:16.782Z,100683.00
2022-07-25T13:48:44.749Z,100690.09
2022-07-25T13:51:12.675Z,100690.97
2022-07-25T13:53:40.454Z,100683.56
2022-07-25T13:56:09.690Z,100697.78
2022-07-25T13:58:37.541Z,100697.59
2022-07-25T14:01:07.253Z,100698.84
2022-07-25T14:03:36.275Z,100713.66
2022-07-25T14:06:04.501Z,100715.94
2022-07-25T14:08:32.609Z,100730.25
2022-07-25T14:11:00.336Z,100734.56
2022-07-25T14:13:29.470Z,100738.22
2022-07-25T14:15:57.245Z,100727.28
2022-07-25T14:18:25.017Z,100735.84
2022-07-25T14:20:52.784Z,100743.72
2022-07-25T14:23:20.561Z,100743.03
2022-07-25T14:25:48.388Z,100738.69
2022-07-25T14:28:16.156Z,100753.03
2022-07-25T14:30:45.267Z,100744.50
2022-07-25T14:33:14.164Z,100752.25
2022-07-25T14:35:41.921Z,100759.81
2022-07-25T14:38:10.103Z,100749.91
2022-07-25T14:40:37.941Z,100750.69
2022-07-25T14:43:05.854Z,100763.59
2022-07-25T14:45:34.137Z,100766.00
2022-07-25T14:48:03.406Z,100763.75
2022-07-25T14:50:31.141Z,100771.72
2022-07-25T14:52:58.888Z,100768.97
2022-07-25T14:55:27.144Z,100768.75
2022-07-25T14:57:55.204Z,100770.75
2022-07-25T15:00:29.243Z,100786.00
2022-07-25T15:02:57.782Z,100774.22
2022-07-25T15:05:26.929Z,100782.34
2022-07-25T15:07:54.640Z,100781.09
2022-07-25T15:10:22.681Z,100781.06
2022-07-25T15:13:02.304Z,100787.03
2022-07-25T15:15:38.485Z,100793.91
2022-07-25T15:18:09.463Z,100796.78
2022-07-25T15:20:42.728Z,100796.50
2022-07-25T15:23:10.456Z,100798.75
2022-07-25T15:28:26.379Z,100794.22
2022-07-25T15:30:54.207Z,100790.44
2022-07-25T15:33:22.299Z,100796.22
2022-07-25T15:35:51.428Z,100786.38
2022-07-25T15:38:19.830Z,100788.91
2022-07-25T15:40:48.206Z,100788.16
2022-07-25T15:43:16.090Z,100791.28
2022-07-25T15:45:45.869Z,100791.53
2022-07-25T15:48:16.126Z,100793.31
2022-07-25T15:50:45.776Z,100800.19
2022-07-25T15:53:15.609Z,100795.56
2022-07-25T15:55:43.562Z,100792.19
2022-07-25T15:58:12.182Z,100786.03
2022-07-25T16:00:40.919Z,100796.16
2022-07-25T16:03:09.590Z,100785.06
2022-07-25T16:05:39.374Z,100790.69
2022-07-25T16:08:08.620Z,100793.66
2022-07-25T16:10:38.483Z,100791.66
2022-07-25T16:13:06.388Z,100785.91
2022-07-25T16:15:34.591Z,100786.44
2022-07-25T16:18:03.200Z,100783.56
2022-07-25T16:20:32.379Z,100781.69
2022-07-25T16:23:00.484Z,100783.56
2022-07-25T16:25:29.601Z,100786.94
2022-07-25T16:27:59.118Z,100787.28
2022-07-25T16:30:27.251Z,100800.28
2022-07-25T16:32:55.651Z,100796.50
2022-07-25T16:35:23.736Z,100797.13
2022-07-25T16:37:51.983Z,100799.41
2022-07-25T16:40:19.747Z,100805.88
2022-07-25T16:42:49.638Z,100800.75
2022-07-25T16:45:18.842Z,100801.38
2022-07-25T16:47:47.557Z,100798.00
2022-07-25T16:50:15.331Z,100798.63
2022-07-25T16:52:43.082Z,100794.38
2022-07-25T16:55:11.109Z,100809.59
2022-07-25T16:57:39.984Z,100803.50
2022-07-25T17:00:09.788Z,100790.53
2022-07-25T17:02:39.739Z,100796.75
2022-07-25T17:05:08.060Z,100805.16
2022-07-25T17:07:36.259Z,100794.06
2022-07-25T17:10:04.932Z,100805.66
2022-07-25T17:12:32.675Z,100796.94
2022-07-25T17:15:00.446Z,100813.75
2022-07-25T17:17:28.592Z,100810.88
2022-07-25T17:20:00.078Z,100812.22
2022-07-25T17:22:28.097Z,100813.34
2022-07-25T17:24:55.813Z,100805.63
2022-07-25T17:27:23.921Z,100799.38
2022-07-25T17:29:51.802Z,100814.22
2022-07-25T17:32:19.559Z,100816.56
2022-07-25T17:34:47.338Z,100811.47
2022-07-25T17:37:16.574Z,100818.31
2022-07-25T17:39:44.372Z,100824.28
2022-07-25T17:42:12.237Z,100816.06
2022-07-25T17:44:40.068Z,100823.53
2022-07-25T17:47:07.844Z,100818.41
2022-07-25T17:49:35.701Z,100826.56
2022-07-25T17:52:03.465Z,100827.66
2022-07-25T17:54:32.677Z,100831.16
2022-07-25T17:57:00.524Z,100833.47
2022-07-25T17:59:28.239Z,100829.16
2022-07-25T18:01:56.036Z,100831.84
2022-07-25T18:04:24.276Z,100843.63
2022-07-25T18:06:52.170Z,100842.13
2022-07-25T18:09:20.372Z,100851.91
2022-07-25T18:11:49.565Z,100850.50
2022-07-25T18:14:17.554Z,100848.53
2022-07-25T18:16:45.844Z,100854.25
2022-07-25T18:19:15.955Z,100864.84
2022-07-25T18:21:45.049Z,100858.31
2022-07-25T18:24:13.335Z,100869.94
2022-07-25T18:26:41.185Z,100864.81
2022-07-25T18:29:10.667Z,100869.16
2022-07-25T18:31:38.634Z,100871.97
2022-07-25T18:34:06.634Z,100884.47
2022-07-25T18:36:35.267Z,100870.13
2022-07-25T18:39:05.277Z,100879.31
2022-07-25T18:41:34.123Z,100877.66
2022-07-25T18:44:01.929Z,100882.16
2022-07-25T18:46:32.821Z,100882.59
2022-07-25T18:49:02.080Z,100876.13
2022-07-25T18:51:29.861Z,100884.56
2022-07-25T18:53:57.628Z,100888.50
2022-07-25T18:56:25.551Z,100895.47
2022-07-25T18:58:53.303Z,100895.91
2022-07-25T19:01:24.240Z,100902.00
2022-07-25T19:03:53.365Z,100901.38
2022-07-25T19:06:21.139Z,100898.13
2022-07-25T19:08:49.090Z,100901.19
2022-07-25T19:11:16.876Z,100902.25
2022-07-25T19:13:49.990Z,100900.47
2022-07-25T19:16:19.151Z,100903.97
2022-07-25T19:18:47.207Z,100903.00
2022-07-25T19:21:16.813Z,100914.13
2022-07-25T19:23:50.513Z,100910.25
2022-07-25T19:26:22.821Z,100914.59
2022-07-25T19:28:51.360Z,100913.84
2022-07-25T19:31:19.202Z,100918.59
2022-07-25T19:33:47.446Z,100923.31
2022-07-25T19:36:16.638Z,100919.22
2022-07-25T19:38:44.389Z,100920.41
2022-07-25T19:41:12.249Z,100926.63
2022-07-25T19:43:40.044Z,100926.53
2022-07-25T19:46:10.845Z,100924.09
2022-07-25T19:48:38.793Z,100928.69
2022-07-25T19:51:06.849Z,100938.94
2022-07-25T19:53:36.237Z,100936.00
2022-07-25T19:56:06.684Z,100935.91
2022-07-25T19:58:38.682Z,100934.81
2022-07-25T20:01:07.758Z,100930.63
2022-07-25T20:03:36.201Z,100943.88
2022-07-25T20:06:08.079Z,100937.06
2022-07-25T20:08:39.290Z,100937.84
2022-07-25T20:11:07.519Z,100952.06
2022-07-25T20:13:35.719Z,100948.78
2022-07-25T20:16:04.000Z,100938.16
2022-07-25T20:18:32.098Z,100939.78
2022-07-25T20:21:00.851Z,100945.34
2022-07-25T20:23:28.643Z,100948.19
2022-07-25T20:25:57.853Z,100952.88
2022-07-25T20:28:25.655Z,100948.19
2022-07-25T20:30:54.056Z,100952.19
2022-07-25T20:33:23.809Z,100944.88
2022-07-25T20:35:51.585Z,100953.06
2022-07-25T20:38:19.377Z,100958.53
2022-07-25T20:40:49.692Z,100958.91
2022-07-25T20:43:19.802Z,100962.88
2022-07-25T20:45:48.040Z,100965.25
2022-07-25T20:48:15.969Z,100981.00
2022-07-25T20:50:43.920Z,100978.47
2022-07-25T20:53:12.262Z,100978.88
2022-07-25T20:55:40.223Z,100975.28
2022-07-25T20:58:08.258Z,100987.75
2022-07-25T21:00:37.635Z,100981.69
2022-07-25T21:03:08.266Z,100989.28
2022-07-25T21:05:37.642Z,100989.91
2022-07-25T21:08:06.020Z,100982.41
2022-07-25T21:10:33.904Z,100990.31
2022-07-25T21:13:02.353Z,100993.38
2022-07-25T21:15:30.818Z,100999.03
2022-07-25T21:18:00.399Z,100999.38
2022-07-25T21:20:28.430Z,100996.75
2022-07-25T21:22:56.374Z,101002.13
2022-07-25T21:25:24.079Z,100998.59
2022-07-25T21:27:51.912Z,100997.81
2022-07-25T21:30:19.701Z,101002.47
2022-07-25T21:32:47.617Z,101016.41
2022-07-25T21:35:18.101Z,101016.66
2022-07-25T21:37:45.848Z,101018.84
2022-07-25T21:40:14.099Z,101014.72
2022-07-25T21:42:42.607Z,101022.47
2022-07-25T21:45:11.188Z,101026.41
2022-07-25T21:47:38.997Z,101033.00
2022-07-25T21:50:27.552Z,101024.00
2022-07-25T21:52:57.385Z,101036.75
2022-07-25T21:55:25.338Z,101039.56
2022-07-25T21:57:53.133Z,101045.19
2022-07-25T22:00:21.537Z,101037.31
2022-07-25T22:02:49.590Z,101037.59
2022-07-25T22:05:19.135Z,101046.72
2022-07-25T22:07:48.187Z,101045.06
2022-07-25T22:10:19.299Z,101047.78
2022-07-25T22:12:47.091Z,101050.50
2022-07-25T22:15:15.311Z,101053.13
2022-07-25T22:17:48.175Z,101043.94
2022-07-25T22:20:18.035Z,101052.25
2022-07-25T22:22:46.545Z,101054.19
2022-07-25T22:25:14.431Z,101055.03
2022-07-25T22:27:43.767Z,101054.97
2022-07-25T22:30:18.290Z,101061.13
2022-07-25T22:32:47.060Z,101046.66
2022-07-25T22:35:15.231Z,101065.63
2022-07-25T22:37:43.023Z,101060.19
2022-07-25T22:40:11.840Z,101071.38
2022-07-25T22:42:39.612Z,101075.09
2022-07-25T22:45:09.763Z,101074.09
2022-07-25T22:47:37.567Z,101072.38
2022-07-25T22:50:06.796Z,101069.66
2022-07-25T22:52:35.373Z,101082.59
2022-07-25T22:55:03.119Z,101082.69
2022-07-25T22:57:36.780Z,101082.84
2022-07-25T23:00:09.790Z,101088.56
2022-07-25T23:02:37.765Z,101086.91
2022-07-25T23:05:06.809Z,101092.38
2022-07-25T23:07:35.350Z,101096.03
2022-07-25T23:10:03.497Z,101093.56
2022-07-25T23:12:31.266Z,101089.94
2022-07-25T23:14:59.033Z,101085.47
2022-07-25T23:17:28.127Z,101096.56
2022-07-25T23:19:57.266Z,101099.47
2022-07-25T23:22:28.196Z,101105.16
2022-07-25T23:24:56.374Z,101105.16
2022-07-25T23:27:25.291Z,101106.19
2022-07-25T23:29:53.220Z,101110.84
2022-07-25T23:32:21.257Z,101111.88
2022-07-25T23:34:50.390Z,101117.56
2022-07-25T23:37:18.217Z,101121.38
2022-07-25T23:39:45.963Z,101112.66
2022-07-25T23:42:13.715Z,101118.25
2022-07-25T23:44:42.036Z,101112.97
2022-07-25T23:47:12.487Z,101124.06
2022-07-25T23:49:41.025Z,101116.06
2022-07-25T23:52:10.251Z,101116.28
2022-07-25T23:54:40.474Z,101117.47
2022-07-25T23:57:08.855Z,101115.84
2022-07-25T23:59:37.140Z,101117.13
